Time;durP1;ratioP1;P1;durP2;ratioP2;P2;SDS_P1;SDS_P2;PMS_P1;PMS_P2;Temp;Humidity;BMP_temperature;BMP_pressure;BME280_temperature;BME280_humidity;BME280_pressure;Samples;Min_cycle;Max_cycle;Signal;HPM_P1;HPM_P2
2022/10/25 00:01:53;;;;;;;3.20;2.30;;;12.30;99.90;;;;;;5050703;28;20453;-89
2022/10/25 00:04:20;;;;;;;4.10;2.77;;;12.30;99.90;;;;;;5037367;28;20464;-89
2022/10/25 00:06:47;;;;;;;4.63;2.90;;;12.30;99.90;;;;;;5036719;28;20444;-89
2022/10/25 00:09:13;;;;;;;3.37;2.30;;;12.30;99.90;;;;;;5039768;28;20541;-90
2022/10/25 00:11:40;;;;;;;4.43;2.77;;;12.30;99.90;;;;;;5039273;28;20449;-90
2022/10/25 00:14:07;;;;;;;7.17;2.50;;;12.30;99.90;;;;;;5037195;28;20452;-88
2022/10/25 00:16:36;;;;;;;2.87;2.50;;;12.30;99.90;;;;;;5037561;28;21096;-88
2022/10/25 00:19:05;;;;;;;2.80;2.17;;;12.40;99.90;;;;;;5036056;28;20464;-88
2022/10/25 00:21:32;;;;;;;5.23;2.87;;;12.50;99.90;;;;;;5036539;28;20453;-88
2022/10/25 00:23:59;;;;;;;5.30;2.73;;;12.50;99.90;;;;;;5054309;28;20469;-88
2022/10/25 00:26:25;;;;;;;5.20;2.57;;;12.60;99.90;;;;;;5047610;28;20441;-88
2022/10/25 00:28:54;;;;;;;5.13;3.10;;;12.50;99.90;;;;;;5035900;28;20866;-88
2022/10/25 00:31:21;;;;;;;5.80;3.40;;;12.60;99.90;;;;;;5035499;28;20450;-88
2022/10/25 00:33:48;;;;;;;5.03;3.03;;;12.50;99.90;;;;;;5035685;28;20914;-89
2022/10/25 00:36:18;;;;;;;4.63;2.87;;;12.40;99.90;;;;;;5035945;28;20825;-88
2022/10/25 00:38:45;;;;;;;5.47;2.70;;;12.30;99.90;;;;;;5040644;28;20469;-88
2022/10/25 00:41:14;;;;;;;7.90;3.17;;;12.30;99.90;;;;;;5058233;28;20454;-87
2022/10/25 00:43:43;;;;;;;4.13;2.90;;;12.30;99.90;;;;;;5057722;28;20485;-88
2022/10/25 00:46:18;;;;;;;3.97;2.43;;;12.30;99.90;;;;;;5052938;28;20488;-88
2022/10/25 00:48:52;;;;;;;4.00;2.90;;;12.30;99.90;;;;;;5048118;28;20999;-88
2022/10/25 00:51:24;;;;;;;3.80;2.30;;;12.30;99.90;;;;;;5036342;28;20468;-89
2022/10/25 00:53:50;;;;;;;3.40;2.23;;;12.20;99.90;;;;;;5035283;28;20423;-88
2022/10/25 00:56:21;;;;;;;3.30;2.90;;;12.10;99.90;;;;;;5041828;28;20450;-88
2022/10/25 00:58:54;;;;;;;4.17;2.53;;;12.20;99.90;;;;;;5035975;28;20486;-88
2022/10/25 01:01:23;;;;;;;4.60;2.27;;;12.20;99.90;;;;;;5034996;28;20449;-88
2022/10/25 01:03:52;;;;;;;4.27;2.33;;;12.20;99.90;;;;;;5035555;28;20486;-88
2022/10/25 01:06:25;;;;;;;3.10;2.47;;;12.10;99.90;;;;;;5035070;28;20460;-88
2022/10/25 01:08:54;;;;;;;5.40;2.63;;;12.10;99.90;;;;;;5034632;28;20545;-88
2022/10/25 01:11:21;;;;;;;9.20;3.13;;;12.20;99.90;;;;;;5044797;28;20509;-88
2022/10/25 01:13:49;;;;;;;5.70;3.00;;;12.20;99.90;;;;;;5057780;28;20458;-88
2022/10/25 01:16:24;;;;;;;3.87;2.90;;;12.20;99.90;;;;;;5048698;28;20468;-88
2022/10/25 01:18:57;;;;;;;5.07;2.87;;;12.20;99.90;;;;;;5034863;28;20473;-89
2022/10/25 01:21:44;;;;;;;6.60;2.97;;;12.30;99.90;;;;;;5054037;28;20457;-88
2022/10/25 01:24:46;;;;;;;2.90;2.30;;;12.20;99.90;;;;;;5042315;28;20481;-89
2022/10/25 01:27:56;;;;;;;5.93;2.70;;;12.20;99.90;;;;;;5034970;28;20430;-88
2022/10/25 01:30:25;;;;;;;5.23;2.93;;;12.10;99.90;;;;;;5055788;28;20485;-87
2022/10/25 01:33:12;;;;;;;4.00;1.97;;;12.10;99.90;;;;;;5056063;28;20458;-88
2022/10/25 01:35:46;;;;;;;4.40;3.40;;;12.10;99.90;;;;;;5048949;28;20442;-89
2022/10/25 01:38:27;;;;;;;4.33;2.77;;;12.00;99.90;;;;;;5056506;28;20457;-86
2022/10/25 01:41:05;;;;;;;6.43;2.80;;;12.10;99.90;;;;;;5040777;28;20932;-88
2022/10/25 01:43:40;;;;;;;4.80;2.80;;;12.00;99.90;;;;;;5041200;28;20533;-89
2022/10/25 01:46:15;;;;;;;3.50;3.20;;;11.90;99.90;;;;;;5056761;28;20447;-88
2022/10/25 01:48:47;;;;;;;4.53;4.03;;;11.90;99.90;;;;;;5045326;28;20938;-89
2022/10/25 01:51:17;;;;;;;3.63;2.90;;;12.10;99.90;;;;;;5038912;28;20457;-88
2022/10/25 01:53:48;;;;;;;3.30;2.97;;;12.10;99.90;;;;;;5035059;28;20445;-88
2022/10/25 01:56:24;;;;;;;9.30;2.90;;;12.10;99.90;;;;;;5034378;28;20451;-88
2022/10/25 01:59:12;;;;;;;2.93;2.67;;;12.10;99.90;;;;;;5033925;28;20477;-89
2022/10/25 02:01:49;;;;;;;3.87;2.90;;;12.10;99.90;;;;;;5034972;28;20811;-89
2022/10/25 02:04:26;;;;;;;4.93;2.90;;;12.00;99.90;;;;;;5034663;28;20477;-88
2022/10/25 02:06:59;;;;;;;4.70;2.90;;;12.00;99.90;;;;;;5035523;28;20786;-89
2022/10/25 02:09:31;;;;;;;4.67;2.50;;;12.00;99.90;;;;;;5036284;28;20541;-88
2022/10/25 02:12:00;;;;;;;8.00;3.53;;;12.00;99.90;;;;;;5033874;28;20434;-88
2022/10/25 02:14:32;;;;;;;4.90;3.27;;;12.00;99.90;;;;;;5053656;28;20433;-89
2022/10/25 02:17:04;;;;;;;4.43;2.93;;;12.00;99.90;;;;;;5036042;28;20438;-89
2022/10/25 02:19:34;;;;;;;3.20;2.70;;;12.20;99.90;;;;;;5033827;28;20474;-89
2022/10/25 02:22:02;;;;;;;8.47;4.53;;;12.20;99.90;;;;;;5037071;28;20430;-88
2022/10/25 02:24:31;;;;;;;4.70;2.70;;;12.10;99.90;;;;;;5040217;28;20485;-89
2022/10/25 02:27:00;;;;;;;4.70;3.20;;;12.10;99.90;;;;;;5053854;28;20498;-89
2022/10/25 02:29:30;;;;;;;5.40;2.60;;;12.00;99.90;;;;;;5034178;28;20496;-88
2022/10/25 02:31:57;;;;;;;4.07;3.40;;;12.00;99.90;;;;;;5033656;28;20512;-89
2022/10/25 02:34:24;;;;;;;7.87;3.40;;;12.00;99.90;;;;;;5034468;28;20942;-88
2022/10/25 02:36:54;;;;;;;6.27;3.80;;;12.00;99.90;;;;;;5033291;28;20533;-89
2022/10/25 02:39:23;;;;;;;7.20;4.33;;;12.00;99.90;;;;;;5032396;28;20560;-88
2022/10/25 02:41:50;;;;;;;9.43;3.97;;;12.00;99.90;;;;;;5033184;28;20453;-89
2022/10/25 02:44:17;;;;;;;7.20;4.00;;;11.90;99.90;;;;;;5033802;28;20474;-88
2022/10/25 02:46:44;;;;;;;7.83;4.00;;;11.90;99.90;;;;;;5034290;28;20818;-88
2022/10/25 02:49:11;;;;;;;5.27;4.37;;;12.00;99.90;;;;;;5033508;28;20474;-89
2022/10/25 02:51:37;;;;;;;6.80;4.60;;;12.00;99.90;;;;;;5036386;28;20440;-88
2022/10/25 02:54:06;;;;;;;8.80;4.10;;;11.90;99.90;;;;;;5041292;28;20509;-89
2022/10/25 02:56:34;;;;;;;7.13;4.60;;;11.90;99.90;;;;;;5041896;28;20453;-89
2022/10/25 02:59:01;;;;;;;7.20;4.57;;;11.90;99.90;;;;;;5045649;28;20537;-89
2022/10/25 03:01:28;;;;;;;9.57;4.60;;;11.80;99.90;;;;;;5055253;28;20478;-88
2022/10/25 03:03:55;;;;;;;7.47;4.50;;;11.80;99.90;;;;;;5042023;28;20508;-89
2022/10/25 03:06:22;;;;;;;10.17;6.53;;;11.80;99.90;;;;;;5038760;28;20521;-89
2022/10/25 03:08:49;;;;;;;7.73;5.40;;;11.90;99.90;;;;;;5037921;28;20980;-89
2022/10/25 03:11:17;;;;;;;9.33;5.43;;;11.90;99.90;;;;;;5038304;28;20453;-89
2022/10/25 03:13:44;;;;;;;8.97;5.67;;;11.90;99.90;;;;;;5038465;28;20813;-89
2022/10/25 03:16:19;;;;;;;10.67;5.63;;;11.80;99.90;;;;;;5040011;28;20488;-88
2022/10/25 03:18:45;;;;;;;13.77;5.80;;;11.80;99.90;;;;;;5037687;28;20469;-88
2022/10/25 03:21:15;;;;;;;9.40;5.10;;;11.80;99.90;;;;;;5051371;28;20470;-88
2022/10/25 03:23:42;;;;;;;6.63;5.00;;;11.80;99.90;;;;;;5059907;28;20473;-87
2022/10/25 03:26:12;;;;;;;8.50;4.83;;;11.80;99.90;;;;;;5056244;28;20440;-89
2022/10/25 03:28:40;;;;;;;8.07;4.70;;;11.80;99.90;;;;;;5060536;28;20469;-88
2022/10/25 03:31:11;;;;;;;7.30;5.00;;;11.80;99.90;;;;;;5060158;28;20466;-89
2022/10/25 03:33:38;;;;;;;7.70;6.33;;;11.80;99.90;;;;;;5055427;28;20421;-88
2022/10/25 03:36:05;;;;;;;6.50;4.70;;;11.90;99.90;;;;;;5051017;28;21013;-89
2022/10/25 03:38:33;;;;;;;7.73;5.50;;;11.80;99.90;;;;;;5043286;28;20465;-89
2022/10/25 03:40:59;;;;;;;6.57;4.90;;;11.80;99.90;;;;;;5045332;28;20445;-87
2022/10/25 03:43:27;;;;;;;5.90;4.80;;;11.70;99.90;;;;;;5060649;28;20500;-88
2022/10/25 03:45:55;;;;;;;9.47;5.10;;;11.70;99.90;;;;;;5060627;28;20440;-87
2022/10/25 03:48:22;;;;;;;10.50;4.90;;;11.70;99.90;;;;;;5054172;28;20459;-88
2022/10/25 03:50:49;;;;;;;8.47;5.63;;;11.70;99.90;;;;;;5042428;28;20525;-88
2022/10/25 03:53:15;;;;;;;9.87;5.77;;;11.60;99.90;;;;;;5047201;28;20460;-88
2022/10/25 03:55:42;;;;;;;8.83;5.40;;;11.60;99.90;;;;;;5038100;28;20440;-88
2022/10/25 03:58:09;;;;;;;9.33;6.60;;;11.60;99.90;;;;;;5036580;28;20464;-87
2022/10/25 04:00:36;;;;;;;12.47;7.47;;;11.60;99.90;;;;;;5047923;28;20434;-88
2022/10/25 04:03:04;;;;;;;9.10;6.27;;;11.60;99.90;;;;;;5056199;28;20453;-89
2022/10/25 04:05:32;;;;;;;7.73;5.40;;;11.70;99.90;;;;;;5037509;28;20430;-88
2022/10/25 04:07:58;;;;;;;8.30;6.33;;;11.60;99.90;;;;;;5035208;28;20457;-88
2022/10/25 04:10:26;;;;;;;8.10;5.67;;;11.60;99.90;;;;;;5042586;28;20436;-87
2022/10/25 04:12:53;;;;;;;10.33;6.13;;;11.60;99.90;;;;;;5059694;28;20449;-88
2022/10/25 04:15:21;;;;;;;11.37;6.60;;;11.60;99.90;;;;;;5049686;28;20471;-87
2022/10/25 04:17:49;;;;;;;10.63;7.10;;;11.60;99.90;;;;;;5038248;28;20962;-88
2022/10/25 04:20:17;;;;;;;19.80;8.20;;;11.60;99.90;;;;;;5043261;28;20462;-88
2022/10/25 04:22:44;;;;;;;12.73;5.90;;;11.50;99.90;;;;;;5039748;28;20464;-87
2022/10/25 04:25:11;;;;;;;10.30;6.60;;;11.50;99.90;;;;;;5038388;28;20496;-87
2022/10/25 04:27:38;;;;;;;8.80;6.10;;;11.50;99.90;;;;;;5039989;28;20460;-88
2022/10/25 04:30:07;;;;;;;6.93;6.07;;;11.50;99.90;;;;;;5089789;22;20494;-90
2022/10/25 04:32:34;;;;;;;9.73;5.93;;;11.60;99.90;;;;;;5127983;27;20427;-87
2022/10/25 04:35:01;;;;;;;11.23;5.23;;;11.50;99.90;;;;;;5118844;27;20483;-89
2022/10/25 04:37:29;;;;;;;9.93;6.17;;;11.60;99.90;;;;;;5119743;28;20446;-88
2022/10/25 04:39:56;;;;;;;11.53;7.20;;;11.60;99.90;;;;;;5140220;27;20466;-88
2022/10/25 04:42:22;;;;;;;7.70;5.80;;;11.60;99.90;;;;;;5138082;27;20438;-89
2022/10/25 04:44:49;;;;;;;7.07;5.40;;;11.60;99.90;;;;;;5128575;28;20981;-88
2022/10/25 04:47:16;;;;;;;9.10;6.43;;;11.50;99.90;;;;;;5115715;28;20465;-88
2022/10/25 04:49:42;;;;;;;11.10;7.63;;;11.50;99.90;;;;;;5117344;28;20847;-89
2022/10/25 04:52:09;;;;;;;11.37;8.13;;;11.50;99.90;;;;;;5115526;28;20453;-88
2022/10/25 04:54:37;;;;;;;8.90;6.00;;;11.60;99.90;;;;;;5115224;28;20447;-88
2022/10/25 04:57:06;;;;;;;14.03;7.57;;;11.50;99.90;;;;;;5114728;28;20444;-88
2022/10/25 04:59:32;;;;;;;12.07;8.00;;;11.50;99.90;;;;;;5114832;28;20476;-88
2022/10/25 05:01:59;;;;;;;9.40;6.70;;;11.50;99.90;;;;;;5116335;28;20957;-89
2022/10/25 05:04:26;;;;;;;9.07;7.57;;;11.40;99.90;;;;;;5123051;27;20477;-87
2022/10/25 05:06:52;;;;;;;11.70;7.93;;;11.40;99.90;;;;;;5139183;27;20505;-87
2022/10/25 05:09:19;;;;;;;11.13;8.33;;;11.40;99.90;;;;;;5135495;27;20454;-88
2022/10/25 05:11:47;;;;;;;10.30;7.70;;;11.50;99.90;;;;;;5115243;28;20442;-88
2022/10/25 05:14:14;;;;;;;13.43;6.70;;;11.50;99.90;;;;;;5114693;28;20445;-89
2022/10/25 05:16:41;;;;;;;8.10;7.30;;;11.50;99.90;;;;;;5113997;28;20830;-88
2022/10/25 05:19:07;;;;;;;10.77;6.60;;;11.50;99.90;;;;;;5094099;28;20474;-89
2022/10/25 05:21:34;;;;;;;9.33;6.60;;;11.40;99.90;;;;;;5094019;28;20447;-88
2022/10/25 05:24:01;;;;;;;11.30;7.43;;;11.50;99.90;;;;;;5094860;28;20482;-88
2022/10/25 05:26:28;;;;;;;7.60;6.40;;;11.50;99.90;;;;;;5093214;28;20455;-88
2022/10/25 05:28:56;;;;;;;11.80;5.87;;;11.50;99.90;;;;;;5101886;28;20434;-88
2022/10/25 05:31:25;;;;;;;7.63;5.43;;;11.50;99.90;;;;;;5103486;28;20441;-88
2022/10/25 05:33:55;;;;;;;7.77;6.77;;;11.50;99.90;;;;;;5107178;28;20457;-88
2022/10/25 05:36:22;;;;;;;12.80;6.33;;;11.40;99.90;;;;;;5125260;27;20453;-87
2022/10/25 05:38:49;;;;;;;13.63;6.40;;;11.40;99.90;;;;;;5118372;27;20435;-88
2022/10/25 05:41:17;;;;;;;9.83;6.30;;;11.40;99.90;;;;;;5110938;28;20450;-89
2022/10/25 05:43:45;;;;;;;15.70;7.40;;;11.40;99.90;;;;;;5131570;28;20421;-88
2022/10/25 05:46:15;;;;;;;10.23;6.80;;;11.40;99.90;;;;;;5127027;28;20502;-88
2022/10/25 05:48:44;;;;;;;9.17;5.97;;;11.40;99.90;;;;;;5121417;28;20434;-88
2022/10/25 05:51:17;;;;;;;10.30;6.73;;;11.40;99.90;;;;;;5124938;27;20455;-88
2022/10/25 05:53:45;;;;;;;9.53;7.70;;;11.40;99.90;;;;;;5107961;28;20977;-89
2022/10/25 05:56:26;;;;;;;12.07;7.43;;;11.30;99.90;;;;;;5103418;28;20450;-88
2022/10/25 05:58:53;;;;;;;15.50;9.20;;;11.30;99.90;;;;;;5109111;28;20515;-89
2022/10/25 06:01:24;;;;;;;12.40;9.30;;;11.40;99.90;;;;;;5105769;28;20435;-89
2022/10/25 06:03:57;;;;;;;14.80;9.77;;;11.40;99.90;;;;;;5098714;28;20819;-88
2022/10/25 06:06:24;;;;;;;16.13;9.43;;;11.40;99.90;;;;;;5099373;28;20504;-89
2022/10/25 06:08:56;;;;;;;14.03;9.83;;;11.40;99.90;;;;;;5096715;28;20455;-88
2022/10/25 06:11:23;;;;;;;13.57;9.90;;;11.30;99.90;;;;;;5094655;28;20443;-88
2022/10/25 06:13:51;;;;;;;11.20;9.43;;;11.40;99.90;;;;;;5103693;28;20926;-88
2022/10/25 06:16:19;;;;;;;16.60;10.50;;;11.30;99.90;;;;;;5113760;28;20438;-88
2022/10/25 06:18:48;;;;;;;19.30;11.70;;;11.30;99.90;;;;;;5112621;28;20434;-88
2022/10/25 06:21:16;;;;;;;20.17;11.50;;;11.40;99.90;;;;;;5101597;28;20468;-89
2022/10/25 06:23:54;;;;;;;20.13;14.20;;;11.40;99.90;;;;;;5098985;28;20517;-89
2022/10/25 06:26:23;;;;;;;16.80;12.73;;;11.40;99.90;;;;;;5105168;28;20442;-89
2022/10/25 06:28:54;;;;;;;14.23;10.07;;;11.50;99.90;;;;;;5108276;28;20441;-88
2022/10/25 06:31:21;;;;;;;11.23;9.67;;;11.40;99.90;;;;;;5102028;28;20450;-89
2022/10/25 06:33:49;;;;;;;13.03;10.13;;;11.50;99.90;;;;;;5099557;28;20434;-89
2022/10/25 06:36:19;;;;;;;20.33;9.23;;;11.50;99.90;;;;;;5104131;28;20438;-89
2022/10/25 06:38:46;;;;;;;16.87;10.10;;;11.60;99.90;;;;;;5107786;28;20521;-90
2022/10/25 06:41:17;;;;;;;16.23;8.70;;;11.60;99.90;;;;;;5110183;28;20442;-88
2022/10/25 06:43:44;;;;;;;10.70;9.43;;;11.60;99.90;;;;;;5101810;28;20441;-89
2022/10/25 06:46:16;;;;;;;10.60;8.00;;;11.60;99.90;;;;;;5107688;28;20524;-89
2022/10/25 06:48:43;;;;;;;9.67;7.87;;;11.60;99.90;;;;;;5103713;28;21783;-88
2022/10/25 06:51:12;;;;;;;13.90;7.90;;;11.60;99.90;;;;;;5105263;28;20489;-89
2022/10/25 06:53:39;;;;;;;10.33;7.70;;;11.60;99.90;;;;;;5104421;28;20478;-89
2022/10/25 06:56:11;;;;;;;12.77;7.83;;;11.70;99.90;;;;;;5105074;28;20434;-87
2022/10/25 06:58:38;;;;;;;13.00;8.80;;;11.70;99.90;;;;;;5105742;28;20588;-88
2022/10/25 07:01:07;;;;;;;10.93;8.23;;;11.70;99.90;;;;;;5117623;28;20465;-88
2022/10/25 07:03:35;;;;;;;12.40;8.50;;;11.80;99.90;;;;;;5111842;27;20407;-87
2022/10/25 07:06:04;;;;;;;11.27;8.87;;;11.80;99.90;;;;;;5135725;27;20570;-87
2022/10/25 07:08:32;;;;;;;14.07;7.90;;;11.90;99.90;;;;;;5129941;27;20510;-88
2022/10/25 07:10:59;;;;;;;11.57;9.30;;;12.00;99.90;;;;;;5125412;27;20983;-88
2022/10/25 07:13:26;;;;;;;9.80;7.90;;;12.10;99.90;;;;;;5105618;28;20431;-88
2022/10/25 07:15:53;;;;;;;13.53;7.40;;;12.20;99.90;;;;;;5100449;28;20458;-88
2022/10/25 07:18:20;;;;;;;10.17;5.63;;;12.30;99.90;;;;;;5098545;28;20524;-88
2022/10/25 07:20:49;;;;;;;9.40;6.57;;;12.40;99.90;;;;;;5101603;28;20527;-89
2022/10/25 07:23:16;;;;;;;10.90;7.17;;;12.40;99.90;;;;;;5098426;28;20439;-89
2022/10/25 07:25:45;;;;;;;11.00;7.23;;;12.50;99.90;;;;;;5102973;28;20478;-88
2022/10/25 07:28:12;;;;;;;8.70;4.83;;;12.60;99.90;;;;;;5102993;28;20431;-89
2022/10/25 07:30:46;;;;;;;10.37;6.60;;;12.60;99.90;;;;;;5107687;28;20519;-89
2022/10/25 07:33:13;;;;;;;10.60;5.13;;;12.60;99.90;;;;;;5099658;28;20442;-89
2022/10/25 07:35:40;;;;;;;8.00;6.30;;;12.70;99.90;;;;;;5102811;28;20431;-89
2022/10/25 07:38:06;;;;;;;8.33;5.20;;;12.70;99.90;;;;;;5119300;27;20421;-88
2022/10/25 07:40:33;;;;;;;15.03;5.30;;;12.80;99.90;;;;;;5122126;27;20454;-89
2022/10/25 07:43:01;;;;;;;10.80;4.80;;;12.80;99.90;;;;;;5110104;28;20442;-88
2022/10/25 07:45:28;;;;;;;9.17;5.93;;;12.80;99.90;;;;;;5108670;28;20481;-89
2022/10/25 07:47:55;;;;;;;6.93;4.70;;;12.90;99.90;;;;;;5106811;28;20955;-89
2022/10/25 07:50:21;;;;;;;13.03;5.10;;;13.00;99.90;;;;;;5105902;28;20453;-89
2022/10/25 07:52:48;;;;;;;10.80;6.30;;;13.10;99.90;;;;;;5103424;28;20815;-88
2022/10/25 07:55:15;;;;;;;6.30;4.73;;;13.20;99.90;;;;;;5102010;28;20435;-88
2022/10/25 07:57:42;;;;;;;9.40;5.80;;;13.30;99.90;;;;;;5102318;28;20975;-89
2022/10/25 08:00:11;;;;;;;11.50;5.27;;;13.50;99.90;;;;;;5101780;28;20476;-88
2022/10/25 08:02:38;;;;;;;11.70;4.60;;;13.50;99.90;;;;;;5106555;28;20931;-89
2022/10/25 08:05:05;;;;;;;6.70;4.73;;;14.00;99.90;;;;;;5099192;28;20474;-89
2022/10/25 08:07:32;;;;;;;4.67;4.17;;;15.40;99.90;;;;;;5106301;28;20435;-89
2022/10/25 08:09:58;;;;;;;5.03;3.00;;;17.10;99.90;;;;;;5110072;27;20975;-89
2022/10/25 08:12:25;;;;;;;5.17;3.10;;;18.50;99.90;;;;;;5097669;28;20435;-89
2022/10/25 08:14:52;;;;;;;5.77;3.30;;;20.20;99.90;;;;;;5105235;28;20438;-89
2022/10/25 08:17:20;;;;;;;8.50;3.53;;;20.40;99.90;;;;;;5110101;28;20442;-89
2022/10/25 08:19:46;;;;;;;7.13;3.13;;;20.90;99.90;;;;;;5104913;28;20451;-89
2022/10/25 08:22:13;;;;;;;5.33;3.00;;;21.30;99.90;;;;;;5108313;28;20457;-89
2022/10/25 08:24:40;;;;;;;8.77;4.00;;;21.30;99.90;;;;;;5110208;28;20865;-89
2022/10/25 08:27:06;;;;;;;6.33;3.03;;;21.10;99.60;;;;;;5108511;28;20882;-90
2022/10/25 08:29:33;;;;;;;7.17;3.47;;;20.60;99.90;;;;;;5129701;27;20439;-87
2022/10/25 08:32:00;;;;;;;11.53;3.97;;;20.40;99.90;;;;;;5129252;27;20438;-89
2022/10/25 08:34:28;;;;;;;6.47;4.00;;;20.10;99.90;;;;;;5103055;28;20935;-89
2022/10/25 08:36:55;;;;;;;9.60;3.70;;;19.80;99.90;;;;;;5107532;28;20446;-89
2022/10/25 08:39:22;;;;;;;16.47;4.63;;;19.90;99.90;;;;;;5107013;28;20851;-89
2022/10/25 08:41:53;;;;;;;4.40;3.60;;;20.30;99.90;;;;;;5117264;28;20502;-88
2022/10/25 08:44:28;;;;;;;5.80;3.60;;;20.30;99.90;;;;;;5103856;28;20434;-89
2022/10/25 08:46:59;;;;;;;8.50;4.17;;;20.40;99.90;;;;;;5115076;28;20434;-90
2022/10/25 08:49:33;;;;;;;5.00;3.83;;;20.60;99.90;;;;;;5103287;27;20524;-90
2022/10/25 08:52:01;;;;;;;4.70;3.40;;;21.40;99.90;;;;;;5106817;28;20450;-90
2022/10/25 08:54:30;;;;;;;5.77;3.73;;;22.30;98.70;;;;;;5107172;28;20442;-90
2022/10/25 08:57:05;;;;;;;7.07;3.30;;;22.10;98.00;;;;;;5101185;28;20435;-90
2022/10/25 08:59:35;;;;;;;8.10;3.70;;;22.40;97.50;;;;;;5104038;28;20464;-86
2022/10/25 09:02:04;;;;;;;4.37;2.93;;;22.30;97.70;;;;;;5099431;28;20447;-88
2022/10/25 09:04:33;;;;;;;7.73;4.27;;;22.40;97.90;;;;;;5100385;28;20444;-87
2022/10/25 09:07:10;;;;;;;7.83;4.33;;;22.70;97.00;;;;;;5102778;28;20439;-90
2022/10/25 09:09:45;;;;;;;11.47;4.50;;;21.90;97.20;;;;;;5100324;27;20483;-90
2022/10/25 09:12:21;;;;;;;6.97;3.47;;;21.60;98.50;;;;;;5105557;28;20536;-90
2022/10/25 09:14:53;;;;;;;6.60;3.07;;;21.70;98.00;;;;;;5111434;28;20441;-89
2022/10/25 09:17:22;;;;;;;14.13;3.83;;;21.40;98.40;;;;;;5118509;28;20439;-90
2022/10/25 09:20:03;;;;;;;9.43;3.97;;;21.20;99.20;;;;;;5106357;28;20460;-88
2022/10/25 09:22:31;;;;;;;5.47;3.77;;;20.90;99.40;;;;;;5103259;28;20434;-90
2022/10/25 09:25:02;;;;;;;7.93;2.93;;;20.10;99.90;;;;;;5119936;28;20485;-89
2022/10/25 09:27:35;;;;;;;10.80;3.33;;;19.80;99.90;;;;;;5124356;28;20451;-90
2022/10/25 09:30:05;;;;;;;10.33;5.03;;;20.40;99.90;;;;;;5117521;28;20446;-89
2022/10/25 09:32:37;;;;;;;7.93;3.40;;;20.80;99.90;;;;;;5129387;28;20415;-89
2022/10/25 09:35:14;;;;;;;11.47;4.40;;;21.30;99.90;;;;;;5122746;27;20956;-90
2022/10/25 09:37:45;;;;;;;10.23;3.80;;;22.00;99.20;;;;;;5106775;28;20427;-89
2022/10/25 09:40:15;;;;;;;5.70;3.63;;;21.70;98.50;;;;;;5102567;28;20982;-89
2022/10/25 09:42:47;;;;;;;6.40;3.00;;;21.70;99.20;;;;;;5101847;28;21001;-89
2022/10/25 09:45:22;;;;;;;5.00;2.90;;;22.40;98.30;;;;;;5104744;28;20477;-89
2022/10/25 09:48:00;;;;;;;3.33;2.70;;;22.00;97.60;;;;;;5101507;28;20473;-90
2022/10/25 09:50:32;;;;;;;8.93;4.13;;;21.40;98.80;;;;;;5105164;28;20553;-90
2022/10/25 09:53:09;;;;;;;6.13;3.30;;;20.80;99.20;;;;;;5113605;28;20469;-90
2022/10/25 09:55:42;;;;;;;5.30;3.23;;;20.40;99.90;;;;;;5118933;27;20462;-89
2022/10/25 09:58:16;;;;;;;7.07;3.47;;;20.00;99.90;;;;;;5100255;28;20464;-87
2022/10/25 10:01:06;;;;;;;3.67;2.50;;;19.90;99.90;;;;;;5106351;28;20484;-89
2022/10/25 10:03:35;;;;;;;5.13;3.53;;;20.40;99.90;;;;;;5102052;28;20443;-88
2022/10/25 10:06:07;;;;;;;3.83;3.00;;;22.30;99.50;;;;;;5107217;28;20478;-89
2022/10/25 10:08:35;;;;;;;8.33;3.50;;;23.30;97.30;;;;;;5099187;28;20804;-89
2022/10/25 10:11:03;;;;;;;6.00;2.53;;;24.70;95.10;;;;;;5112371;28;20462;-89
2022/10/25 10:13:36;;;;;;;7.57;3.13;;;26.00;93.40;;;;;;5128225;27;20446;-88
2022/10/25 10:16:19;;;;;;;5.27;2.63;;;26.40;91.30;;;;;;5116312;28;20539;-89
2022/10/25 10:18:46;;;;;;;6.77;3.90;;;26.50;90.40;;;;;;5097855;28;20447;-88
2022/10/25 10:21:18;;;;;;;6.00;2.90;;;26.20;90.10;;;;;;5104672;28;20477;-88
2022/10/25 10:23:49;;;;;;;6.70;2.90;;;26.40;89.90;;;;;;5102422;28;20433;-89
2022/10/25 10:26:25;;;;;;;5.00;2.90;;;26.90;86.10;;;;;;5102594;28;20844;-87
2022/10/25 10:29:03;;;;;;;5.83;2.60;;;26.80;86.80;;;;;;5112228;28;20441;-89
2022/10/25 10:31:36;;;;;;;6.43;2.03;;;27.00;88.50;;;;;;5109724;28;20959;-88
2022/10/25 10:34:03;;;;;;;3.07;1.40;;;26.60;81.90;;;;;;5101182;28;20470;-88
2022/10/25 10:36:32;;;;;;;7.77;1.57;;;25.60;82.30;;;;;;5106740;28;20436;-88
2022/10/25 10:39:21;;;;;;;4.40;1.40;;;24.30;84.80;;;;;;5105185;28;20747;-87
2022/10/25 10:41:59;;;;;;;3.77;1.80;;;25.50;86.40;;;;;;5099366;28;20435;-87
2022/10/25 10:44:26;;;;;;;4.17;1.47;;;26.10;83.50;;;;;;5104565;28;20985;-88
2022/10/25 10:46:54;;;;;;;2.77;1.17;;;27.10;80.90;;;;;;5106600;28;20499;-88
2022/10/25 10:49:26;;;;;;;2.80;2.17;;;27.00;79.50;;;;;;5103083;28;20456;-88
2022/10/25 10:51:55;;;;;;;4.73;1.93;;;27.80;78.60;;;;;;5101759;28;20446;-88
2022/10/25 10:54:26;;;;;;;4.23;1.60;;;27.10;76.50;;;;;;5104836;28;20450;-89
2022/10/25 10:56:55;;;;;;;3.30;1.33;;;27.90;76.90;;;;;;5101233;28;20441;-90
2022/10/25 10:59:29;;;;;;;3.67;1.50;;;28.30;73.50;;;;;;5106830;28;20462;-90
2022/10/25 11:01:56;;;;;;;3.50;1.40;;;28.10;74.20;;;;;;5102230;28;20434;-87
2022/10/25 11:04:23;;;;;;;7.70;1.80;;;29.70;71.60;;;;;;5102225;28;20443;-93
2022/10/25 11:06:50;;;;;;;2.77;1.40;;;29.40;68.30;;;;;;5102155;28;20576;-91
2022/10/25 11:09:24;;;;;;;6.40;1.73;;;29.10;68.40;;;;;;5102946;28;20485;-90
2022/10/25 11:12:06;;;;;;;4.00;1.53;;;28.80;70.00;;;;;;5118031;28;20434;-91
2022/10/25 11:14:33;;;;;;;2.53;1.20;;;29.90;66.10;;;;;;5125048;28;20433;-90
2022/10/25 11:17:06;;;;;;;5.13;1.97;;;29.90;66.50;;;;;;5112004;28;20436;-90
2022/10/25 11:19:46;;;;;;;2.97;1.40;;;32.00;62.90;;;;;;5107039;28;20799;-91
2022/10/25 11:22:46;;;;;;;5.33;2.10;;;32.60;58.70;;;;;;5107463;27;20446;-91
2022/10/25 11:25:24;;;;;;;5.23;1.67;;;32.30;57.90;;;;;;5105937;28;20438;-90
2022/10/25 11:28:03;;;;;;;3.17;1.40;;;32.90;56.60;;;;;;5124069;28;20430;-89
2022/10/25 11:30:40;;;;;;;4.97;1.40;;;32.30;55.20;;;;;;5105736;28;20453;-90
2022/10/25 11:33:38;;;;;;;5.00;2.20;;;31.60;56.80;;;;;;5124084;28;20447;-89
2022/10/25 11:36:39;;;;;;;9.33;3.73;;;32.60;55.20;;;;;;5106682;28;20447;-89
2022/10/25 11:39:39;;;;;;;4.53;1.30;;;32.00;55.00;;;;;;5091112;28;20467;-90
2022/10/25 11:42:21;;;;;;;3.17;1.63;;;30.30;57.00;;;;;;5097877;28;20501;-90
2022/10/25 11:45:05;;;;;;;3.10;1.37;;;29.80;57.80;;;;;;5109066;28;20517;-89
2022/10/25 11:47:42;;;;;;;3.70;2.07;;;29.90;58.40;;;;;;5117136;28;20475;-91
2022/10/25 11:50:21;;;;;;;2.27;1.17;;;30.00;58.10;;;;;;5107024;28;20466;-90
2022/10/25 11:53:01;;;;;;;3.33;2.10;;;31.80;56.20;;;;;;5113014;28;20437;-90
2022/10/25 11:55:35;;;;;;;3.50;1.40;;;31.50;55.00;;;;;;5121315;27;20419;-91
2022/10/25 12:01:12;;;;;;;4.10;2.50;;;30.80;56.00;;;;;;5128982;27;20465;-90
2022/10/25 12:03:54;;;;;;;2.97;1.40;;;29.70;56.90;;;;;;5124167;28;20431;-88
2022/10/25 12:06:26;;;;;;;3.73;1.20;;;28.50;58.80;;;;;;5108471;27;20493;-87
2022/10/25 12:09:04;;;;;;;3.77;1.20;;;29.20;59.30;;;;;;5108147;28;20475;-86
2022/10/25 12:11:33;;;;;;;3.77;1.53;;;28.20;59.50;;;;;;5099204;28;20466;-86
2022/10/25 12:14:07;;;;;;;4.20;1.50;;;28.60;61.40;;;;;;5103317;28;20434;-86
2022/10/25 12:16:36;;;;;;;3.53;1.47;;;28.80;59.90;;;;;;5100899;28;20449;-86
2022/10/25 12:19:11;;;;;;;3.50;1.30;;;27.50;61.30;;;;;;5100877;28;20438;-86
2022/10/25 12:21:42;;;;;;;2.20;1.10;;;26.70;63.20;;;;;;5101437;28;20439;-86
2022/10/25 12:24:18;;;;;;;5.10;2.10;;;25.70;67.00;;;;;;5095209;28;20442;-86
2022/10/25 12:26:47;;;;;;;4.30;1.63;;;25.50;67.10;;;;;;5104313;28;20489;-86
2022/10/25 12:29:20;;;;;;;4.60;1.97;;;25.20;72.60;;;;;;5096833;28;20500;-86
2022/10/25 12:31:50;;;;;;;5.03;1.80;;;25.10;74.80;;;;;;5112678;28;20441;-86
2022/10/25 12:34:21;;;;;;;4.90;1.80;;;24.90;75.90;;;;;;5112414;28;20440;-85
2022/10/25 12:36:52;;;;;;;5.03;2.93;;;24.50;77.90;;;;;;5122267;28;20433;-86
2022/10/25 12:39:22;;;;;;;5.00;1.97;;;24.50;79.10;;;;;;5113903;28;20486;-86
2022/10/25 12:41:52;;;;;;;3.80;2.10;;;24.00;80.60;;;;;;5122108;28;20436;-86
2022/10/25 12:44:41;;;;;;;4.90;1.70;;;23.60;81.70;;;;;;5098167;28;20435;-86
2022/10/25 12:47:28;;;;;;;4.67;1.80;;;23.50;82.90;;;;;;5099427;28;20477;-86
2022/10/25 12:50:17;;;;;;;6.20;2.00;;;23.40;83.50;;;;;;5129587;22;20488;-85
2022/10/25 12:53:14;;;;;;;4.13;1.73;;;23.50;83.70;;;;;;5074466;28;20448;-84
2022/10/25 12:55:44;;;;;;;3.40;1.80;;;23.70;83.40;;;;;;5083283;28;20433;-84
2022/10/25 12:58:32;;;;;;;8.27;2.50;;;23.90;81.90;;;;;;5073839;28;20444;-84
2022/10/25 13:01:30;;;;;;;3.77;1.60;;;23.60;82.20;;;;;;5057858;28;20450;-84
2022/10/25 13:04:17;;;;;;;6.97;1.70;;;23.10;83.40;;;;;;5070826;28;20445;-85
2022/10/25 13:06:45;;;;;;;4.40;2.20;;;22.60;85.00;;;;;;5073430;28;20476;-85